sensor_id;sensor_type;location;lat;lon;timestamp;P1;durP1;ratioP1;P2;durP2;ratioP2
21733;SDS011;11029;47.820;10.534;2023-11-19T00:02:24;0.25;;;0.25;;
21733;SDS011;11029;47.820;10.534;2023-11-19T00:05:10;0.30;;;0.30;;
21733;SDS011;11029;47.820;10.534;2023-11-19T00:07:57;0.20;;;0.20;;
21733;SDS011;11029;47.820;10.534;2023-11-19T00:10:43;0.30;;;0.25;;
21733;SDS011;11029;47.820;10.534;2023-11-19T00:13:28;1.95;;;0.30;;
21733;SDS011;11029;47.820;10.534;2023-11-19T00:16:14;0.32;;;0.32;;
21733;SDS011;11029;47.820;10.534;2023-11-19T00:19:01;0.20;;;0.20;;
21733;SDS011;11029;47.820;10.534;2023-11-19T00:21:46;1.23;;;0.40;;
21733;SDS011;11029;47.820;10.534;2023-11-19T00:24:32;0.47;;;0.30;;
21733;SDS011;11029;47.820;10.534;2023-11-19T00:27:18;0.30;;;0.30;;
21733;SDS011;11029;47.820;10.534;2023-11-19T00:30:06;0.45;;;0.30;;
21733;SDS011;11029;47.820;10.534;2023-11-19T00:32:55;0.30;;;0.30;;
21733;SDS011;11029;47.820;10.534;2023-11-19T00:35:41;0.47;;;0.30;;
21733;SDS011;11029;47.820;10.534;2023-11-19T00:38:26;0.43;;;0.30;;
21733;SDS011;11029;47.820;10.534;2023-11-19T00:41:12;0.63;;;0.22;;
21733;SDS011;11029;47.820;10.534;2023-11-19T00:43:58;1.00;;;0.22;;
21733;SDS011;11029;47.820;10.534;2023-11-19T00:46:44;0.65;;;0.20;;
21733;SDS011;11029;47.820;10.534;2023-11-19T00:49:30;0.63;;;0.57;;
21733;SDS011;11029;47.820;10.534;2023-11-19T00:52:17;0.95;;;0.45;;
21733;SDS011;11029;47.820;10.534;2023-11-19T00:55:04;0.38;;;0.38;;
21733;SDS011;11029;47.820;10.534;2023-11-19T00:57:50;0.20;;;0.20;;
21733;SDS011;11029;47.820;10.534;2023-11-19T01:00:36;0.20;;;0.20;;
21733;SDS011;11029;47.820;10.534;2023-11-19T01:03:21;0.52;;;0.20;;
21733;SDS011;11029;47.820;10.534;2023-11-19T01:06:07;0.28;;;0.28;;
21733;SDS011;11029;47.820;10.534;2023-11-19T01:08:54;0.63;;;0.20;;
21733;SDS011;11029;47.820;10.534;2023-11-19T01:11:41;0.20;;;0.20;;
21733;SDS011;11029;47.820;10.534;2023-11-19T01:14:27;0.20;;;0.20;;
21733;SDS011;11029;47.820;10.534;2023-11-19T01:17:13;0.57;;;0.20;;
21733;SDS011;11029;47.820;10.534;2023-11-19T01:19:58;0.20;;;0.20;;
21733;SDS011;11029;47.820;10.534;2023-11-19T01:22:44;0.20;;;0.20;;
21733;SDS011;11029;47.820;10.534;2023-11-19T01:25:30;0.40;;;0.17;;
21733;SDS011;11029;47.820;10.534;2023-11-19T01:28:15;0.22;;;0.20;;
21733;SDS011;11029;47.820;10.534;2023-11-19T01:31:00;1.85;;;0.20;;
21733;SDS011;11029;47.820;10.534;2023-11-19T01:33:46;0.20;;;0.20;;
21733;SDS011;11029;47.820;10.534;2023-11-19T01:36:31;0.13;;;0.13;;
21733;SDS011;11029;47.820;10.534;2023-11-19T01:39:17;0.10;;;0.10;;
21733;SDS011;11029;47.820;10.534;2023-11-19T01:42:05;0.20;;;0.20;;
21733;SDS011;11029;47.820;10.534;2023-11-19T01:45:00;0.17;;;0.13;;
21733;SDS011;11029;47.820;10.534;2023-11-19T01:47:51;0.10;;;0.10;;
21733;SDS011;11029;47.820;10.534;2023-11-19T01:50:37;0.40;;;0.20;;
21733;SDS011;11029;47.820;10.534;2023-11-19T01:53:22;0.10;;;0.10;;
21733;SDS011;11029;47.820;10.534;2023-11-19T01:56:09;0.20;;;0.20;;
21733;SDS011;11029;47.820;10.534;2023-11-19T01:58:58;0.20;;;0.20;;
21733;SDS011;11029;47.820;10.534;2023-11-19T02:01:44;0.17;;;0.17;;
21733;SDS011;11029;47.820;10.534;2023-11-19T02:04:30;0.20;;;0.20;;
21733;SDS011;11029;47.820;10.534;2023-11-19T02:07:17;0.20;;;0.20;;
21733;SDS011;11029;47.820;10.534;2023-11-19T02:10:03;0.30;;;0.30;;
21733;SDS011;11029;47.820;10.534;2023-11-19T02:12:50;0.98;;;0.30;;
21733;SDS011;11029;47.820;10.534;2023-11-19T02:15:36;3.10;;;0.30;;
21733;SDS011;11029;47.820;10.534;2023-11-19T02:18:22;0.30;;;0.30;;
21733;SDS011;11029;47.820;10.534;2023-11-19T02:21:15;0.43;;;0.20;;
21733;SDS011;11029;47.820;10.534;2023-11-19T02:24:03;0.28;;;0.28;;
21733;SDS011;11029;47.820;10.534;2023-11-19T02:27:06;0.20;;;0.20;;
21733;SDS011;11029;47.820;10.534;2023-11-19T02:30:01;0.43;;;0.32;;
21733;SDS011;11029;47.820;10.534;2023-11-19T02:32:48;0.40;;;0.40;;
21733;SDS011;11029;47.820;10.534;2023-11-19T02:35:33;0.20;;;0.20;;
21733;SDS011;11029;47.820;10.534;2023-11-19T02:38:19;0.22;;;0.22;;
21733;SDS011;11029;47.820;10.534;2023-11-19T02:41:06;0.30;;;0.30;;
21733;SDS011;11029;47.820;10.534;2023-11-19T02:43:54;0.20;;;0.20;;
21733;SDS011;11029;47.820;10.534;2023-11-19T02:46:39;0.30;;;0.30;;
21733;SDS011;11029;47.820;10.534;2023-11-19T02:49:27;0.20;;;0.20;;
21733;SDS011;11029;47.820;10.534;2023-11-19T02:52:13;0.20;;;0.20;;
21733;SDS011;11029;47.820;10.534;2023-11-19T02:56:13;0.30;;;0.30;;
21733;SDS011;11029;47.820;10.534;2023-11-19T02:59:19;0.32;;;0.32;;
21733;SDS011;11029;47.820;10.534;2023-11-19T03:02:12;2.90;;;0.50;;
21733;SDS011;11029;47.820;10.534;2023-11-19T03:05:00;0.30;;;0.30;;
21733;SDS011;11029;47.820;10.534;2023-11-19T03:07:46;0.35;;;0.35;;
21733;SDS011;11029;47.820;10.534;2023-11-19T03:10:33;0.35;;;0.35;;
21733;SDS011;11029;47.820;10.534;2023-11-19T03:13:19;0.35;;;0.28;;
21733;SDS011;11029;47.820;10.534;2023-11-19T03:16:05;0.40;;;0.40;;
21733;SDS011;11029;47.820;10.534;2023-11-19T03:18:52;0.40;;;0.40;;
21733;SDS011;11029;47.820;10.534;2023-11-19T03:21:38;0.40;;;0.40;;
21733;SDS011;11029;47.820;10.534;2023-11-19T03:24:23;1.40;;;0.43;;
21733;SDS011;11029;47.820;10.534;2023-11-19T03:27:09;0.40;;;0.40;;
21733;SDS011;11029;47.820;10.534;2023-11-19T03:29:56;0.30;;;0.30;;
21733;SDS011;11029;47.820;10.534;2023-11-19T03:32:41;0.20;;;0.20;;
21733;SDS011;11029;47.820;10.534;2023-11-19T03:35:27;0.32;;;0.32;;
21733;SDS011;11029;47.820;10.534;2023-11-19T03:38:12;0.40;;;0.30;;
21733;SDS011;11029;47.820;10.534;2023-11-19T03:40:59;0.88;;;0.40;;
21733;SDS011;11029;47.820;10.534;2023-11-19T03:43:45;0.25;;;0.20;;
21733;SDS011;11029;47.820;10.534;2023-11-19T03:46:31;1.05;;;0.30;;
21733;SDS011;11029;47.820;10.534;2023-11-19T03:49:17;0.40;;;0.40;;
21733;SDS011;11029;47.820;10.534;2023-11-19T03:52:03;0.70;;;0.43;;
21733;SDS011;11029;47.820;10.534;2023-11-19T03:54:50;1.00;;;0.50;;
21733;SDS011;11029;47.820;10.534;2023-11-19T03:57:35;0.95;;;0.30;;
21733;SDS011;11029;47.820;10.534;2023-11-19T04:00:21;0.32;;;0.30;;
21733;SDS011;11029;47.820;10.534;2023-11-19T04:03:06;1.27;;;0.40;;
21733;SDS011;11029;47.820;10.534;2023-11-19T04:05:52;0.55;;;0.32;;
21733;SDS011;11029;47.820;10.534;2023-11-19T04:08:37;1.00;;;0.50;;
21733;SDS011;11029;47.820;10.534;2023-11-19T04:11:23;0.32;;;0.30;;
21733;SDS011;11029;47.820;10.534;2023-11-19T04:14:09;0.30;;;0.30;;
21733;SDS011;11029;47.820;10.534;2023-11-19T04:16:55;0.25;;;0.25;;
21733;SDS011;11029;47.820;10.534;2023-11-19T04:19:40;0.30;;;0.30;;
21733;SDS011;11029;47.820;10.534;2023-11-19T04:22:26;0.40;;;0.40;;
21733;SDS011;11029;47.820;10.534;2023-11-19T04:25:12;0.30;;;0.30;;
21733;SDS011;11029;47.820;10.534;2023-11-19T04:27:59;0.45;;;0.40;;
21733;SDS011;11029;47.820;10.534;2023-11-19T04:30:44;0.30;;;0.30;;
21733;SDS011;11029;47.820;10.534;2023-11-19T04:33:30;0.30;;;0.30;;
21733;SDS011;11029;47.820;10.534;2023-11-19T04:36:18;0.35;;;0.20;;
21733;SDS011;11029;47.820;10.534;2023-11-19T04:39:03;0.30;;;0.30;;
21733;SDS011;11029;47.820;10.534;2023-11-19T04:41:57;0.22;;;0.20;;
21733;SDS011;11029;47.820;10.534;2023-11-19T04:44:43;0.30;;;0.30;;
21733;SDS011;11029;47.820;10.534;2023-11-19T04:47:28;0.57;;;0.30;;
21733;SDS011;11029;47.820;10.534;2023-11-19T04:50:14;0.30;;;0.30;;
21733;SDS011;11029;47.820;10.534;2023-11-19T04:52:59;0.20;;;0.20;;
21733;SDS011;11029;47.820;10.534;2023-11-19T04:55:45;0.20;;;0.20;;
21733;SDS011;11029;47.820;10.534;2023-11-19T04:58:30;0.20;;;0.20;;
21733;SDS011;11029;47.820;10.534;2023-11-19T05:01:16;0.30;;;0.20;;
21733;SDS011;11029;47.820;10.534;2023-11-19T05:04:02;0.22;;;0.22;;
21733;SDS011;11029;47.820;10.534;2023-11-19T05:06:48;0.20;;;0.20;;
21733;SDS011;11029;47.820;10.534;2023-11-19T05:09:33;0.43;;;0.28;;
21733;SDS011;11029;47.820;10.534;2023-11-19T05:12:19;0.20;;;0.20;;
21733;SDS011;11029;47.820;10.534;2023-11-19T05:15:05;0.30;;;0.30;;
21733;SDS011;11029;47.820;10.534;2023-11-19T05:17:51;0.25;;;0.25;;
21733;SDS011;11029;47.820;10.534;2023-11-19T05:20:36;0.30;;;0.30;;
21733;SDS011;11029;47.820;10.534;2023-11-19T05:23:22;0.20;;;0.20;;
21733;SDS011;11029;47.820;10.534;2023-11-19T05:26:07;0.20;;;0.20;;
21733;SDS011;11029;47.820;10.534;2023-11-19T05:28:53;0.80;;;0.40;;
21733;SDS011;11029;47.820;10.534;2023-11-19T05:31:39;0.25;;;0.25;;
21733;SDS011;11029;47.820;10.534;2023-11-19T05:34:28;0.20;;;0.20;;
21733;SDS011;11029;47.820;10.534;2023-11-19T05:37:14;0.30;;;0.30;;
21733;SDS011;11029;47.820;10.534;2023-11-19T05:39:59;0.20;;;0.20;;
21733;SDS011;11029;47.820;10.534;2023-11-19T05:42:48;0.20;;;0.20;;
21733;SDS011;11029;47.820;10.534;2023-11-19T05:45:33;0.20;;;0.20;;
21733;SDS011;11029;47.820;10.534;2023-11-19T05:48:19;0.20;;;0.20;;
21733;SDS011;11029;47.820;10.534;2023-11-19T05:51:04;0.40;;;0.40;;
21733;SDS011;11029;47.820;10.534;2023-11-19T05:53:50;2.35;;;1.33;;
21733;SDS011;11029;47.820;10.534;2023-11-19T05:56:36;0.20;;;0.20;;
21733;SDS011;11029;47.820;10.534;2023-11-19T05:59:23;0.80;;;0.10;;
21733;SDS011;11029;47.820;10.534;2023-11-19T06:02:09;0.20;;;0.20;;
21733;SDS011;11029;47.820;10.534;2023-11-19T06:04:54;0.10;;;0.10;;
21733;SDS011;11029;47.820;10.534;2023-11-19T06:07:40;0.90;;;0.10;;
21733;SDS011;11029;47.820;10.534;2023-11-19T06:10:26;0.13;;;0.13;;
21733;SDS011;11029;47.820;10.534;2023-11-19T06:13:16;0.10;;;0.10;;
21733;SDS011;11029;47.820;10.534;2023-11-19T06:16:01;0.10;;;0.10;;
21733;SDS011;11029;47.820;10.534;2023-11-19T06:18:47;0.20;;;0.10;;
21733;SDS011;11029;47.820;10.534;2023-11-19T06:21:33;0.10;;;0.10;;
21733;SDS011;11029;47.820;10.534;2023-11-19T06:24:20;0.30;;;0.30;;
21733;SDS011;11029;47.820;10.534;2023-11-19T06:27:06;0.20;;;0.20;;
21733;SDS011;11029;47.820;10.534;2023-11-19T06:29:52;0.52;;;0.20;;
21733;SDS011;11029;47.820;10.534;2023-11-19T06:32:37;0.20;;;0.20;;
21733;SDS011;11029;47.820;10.534;2023-11-19T06:35:23;0.28;;;0.28;;
21733;SDS011;11029;47.820;10.534;2023-11-19T06:38:09;0.52;;;0.40;;
21733;SDS011;11029;47.820;10.534;2023-11-19T06:40:55;0.40;;;0.40;;
21733;SDS011;11029;47.820;10.534;2023-11-19T06:43:40;0.30;;;0.30;;
21733;SDS011;11029;47.820;10.534;2023-11-19T06:46:27;0.30;;;0.30;;
21733;SDS011;11029;47.820;10.534;2023-11-19T06:49:12;0.30;;;0.30;;
21733;SDS011;11029;47.820;10.534;2023-11-19T06:51:58;0.20;;;0.20;;
21733;SDS011;11029;47.820;10.534;2023-11-19T06:54:44;1.15;;;0.35;;
21733;SDS011;11029;47.820;10.534;2023-11-19T06:57:32;0.30;;;0.30;;
21733;SDS011;11029;47.820;10.534;2023-11-19T07:00:18;0.30;;;0.30;;
21733;SDS011;11029;47.820;10.534;2023-11-19T07:03:03;0.30;;;0.30;;
21733;SDS011;11029;47.820;10.534;2023-11-19T07:05:51;0.93;;;0.80;;
21733;SDS011;11029;47.820;10.534;2023-11-19T07:08:36;0.50;;;0.50;;
21733;SDS011;11029;47.820;10.534;2023-11-19T07:11:23;1.10;;;0.50;;
21733;SDS011;11029;47.820;10.534;2023-11-19T07:14:09;0.50;;;0.50;;
21733;SDS011;11029;47.820;10.534;2023-11-19T07:16:55;0.60;;;0.60;;
21733;SDS011;11029;47.820;10.534;2023-11-19T07:19:41;0.55;;;0.52;;
21733;SDS011;11029;47.820;10.534;2023-11-19T07:22:26;0.40;;;0.40;;
21733;SDS011;11029;47.820;10.534;2023-11-19T07:25:14;0.50;;;0.50;;
21733;SDS011;11029;47.820;10.534;2023-11-19T07:28:00;0.45;;;0.45;;
21733;SDS011;11029;47.820;10.534;2023-11-19T07:30:45;0.40;;;0.40;;
21733;SDS011;11029;47.820;10.534;2023-11-19T07:33:31;0.98;;;0.98;;
21733;SDS011;11029;47.820;10.534;2023-11-19T07:36:16;1.27;;;0.40;;
21733;SDS011;11029;47.820;10.534;2023-11-19T07:39:02;0.38;;;0.30;;
21733;SDS011;11029;47.820;10.534;2023-11-19T07:41:50;0.38;;;0.38;;
21733;SDS011;11029;47.820;10.534;2023-11-19T07:44:36;0.40;;;0.40;;
21733;SDS011;11029;47.820;10.534;2023-11-19T07:47:22;0.45;;;0.45;;
21733;SDS011;11029;47.820;10.534;2023-11-19T07:50:08;0.40;;;0.40;;
21733;SDS011;11029;47.820;10.534;2023-11-19T07:52:54;0.60;;;0.60;;
21733;SDS011;11029;47.820;10.534;2023-11-19T07:55:40;0.50;;;0.50;;
21733;SDS011;11029;47.820;10.534;2023-11-19T07:58:26;0.50;;;0.43;;
21733;SDS011;11029;47.820;10.534;2023-11-19T08:01:12;0.30;;;0.30;;
21733;SDS011;11029;47.820;10.534;2023-11-19T08:03:58;0.50;;;0.50;;
21733;SDS011;11029;47.820;10.534;2023-11-19T08:06:44;0.45;;;0.40;;
21733;SDS011;11029;47.820;10.534;2023-11-19T08:09:30;0.82;;;0.63;;
21733;SDS011;11029;47.820;10.534;2023-11-19T08:12:16;1.33;;;0.47;;
21733;SDS011;11029;47.820;10.534;2023-11-19T08:15:03;0.68;;;0.40;;
21733;SDS011;11029;47.820;10.534;2023-11-19T08:17:49;0.40;;;0.40;;
21733;SDS011;11029;47.820;10.534;2023-11-19T08:20:36;0.55;;;0.40;;
21733;SDS011;11029;47.820;10.534;2023-11-19T08:23:21;0.95;;;0.95;;
21733;SDS011;11029;47.820;10.534;2023-11-19T08:26:09;0.60;;;0.60;;
21733;SDS011;11029;47.820;10.534;2023-11-19T08:28:55;0.30;;;0.30;;
21733;SDS011;11029;47.820;10.534;2023-11-19T08:31:42;1.02;;;0.93;;
21733;SDS011;11029;47.820;10.534;2023-11-19T08:34:27;0.38;;;0.38;;
21733;SDS011;11029;47.820;10.534;2023-11-19T08:37:13;0.40;;;0.40;;
21733;SDS011;11029;47.820;10.534;2023-11-19T08:39:59;0.80;;;0.50;;
21733;SDS011;11029;47.820;10.534;2023-11-19T08:42:45;0.47;;;0.40;;
21733;SDS011;11029;47.820;10.534;2023-11-19T08:45:31;0.32;;;0.32;;
21733;SDS011;11029;47.820;10.534;2023-11-19T08:48:16;0.50;;;0.35;;
21733;SDS011;11029;47.820;10.534;2023-11-19T08:51:02;0.40;;;0.40;;
21733;SDS011;11029;47.820;10.534;2023-11-19T08:53:48;0.40;;;0.30;;
21733;SDS011;11029;47.820;10.534;2023-11-19T08:56:33;0.30;;;0.30;;
21733;SDS011;11029;47.820;10.534;2023-11-19T08:59:20;0.20;;;0.20;;
21733;SDS011;11029;47.820;10.534;2023-11-19T09:02:06;0.30;;;0.30;;
21733;SDS011;11029;47.820;10.534;2023-11-19T09:04:52;0.30;;;0.30;;
21733;SDS011;11029;47.820;10.534;2023-11-19T09:07:39;4.28;;;3.33;;
21733;SDS011;11029;47.820;10.534;2023-11-19T09:10:24;0.30;;;0.30;;
21733;SDS011;11029;47.820;10.534;2023-11-19T09:13:09;0.20;;;0.20;;
21733;SDS011;11029;47.820;10.534;2023-11-19T09:15:55;0.85;;;0.30;;
21733;SDS011;11029;47.820;10.534;2023-11-19T09:18:44;0.20;;;0.20;;
21733;SDS011;11029;47.820;10.534;2023-11-19T09:21:29;0.40;;;0.30;;
21733;SDS011;11029;47.820;10.534;2023-11-19T09:24:15;0.20;;;0.20;;
21733;SDS011;11029;47.820;10.534;2023-11-19T09:27:01;0.30;;;0.30;;
21733;SDS011;11029;47.820;10.534;2023-11-19T09:29:46;0.38;;;0.38;;
21733;SDS011;11029;47.820;10.534;2023-11-19T09:32:33;0.20;;;0.20;;
21733;SDS011;11029;47.820;10.534;2023-11-19T09:35:19;0.20;;;0.20;;
21733;SDS011;11029;47.820;10.534;2023-11-19T09:38:05;0.63;;;0.20;;
21733;SDS011;11029;47.820;10.534;2023-11-19T09:40:50;0.30;;;0.30;;
21733;SDS011;11029;47.820;10.534;2023-11-19T09:43:36;0.13;;;0.13;;
21733;SDS011;11029;47.820;10.534;2023-11-19T09:46:21;0.20;;;0.20;;
21733;SDS011;11029;47.820;10.534;2023-11-19T09:49:09;0.20;;;0.20;;
21733;SDS011;11029;47.820;10.534;2023-11-19T09:51:56;0.30;;;0.30;;
21733;SDS011;11029;47.820;10.534;2023-11-19T09:54:42;0.38;;;0.38;;
21733;SDS011;11029;47.820;10.534;2023-11-19T09:57:28;0.85;;;0.30;;
21733;SDS011;11029;47.820;10.534;2023-11-19T10:00:17;0.60;;;0.20;;
21733;SDS011;11029;47.820;10.534;2023-11-19T10:03:09;0.20;;;0.20;;
21733;SDS011;11029;47.820;10.534;2023-11-19T10:05:57;0.20;;;0.20;;
21733;SDS011;11029;47.820;10.534;2023-11-19T10:08:44;0.45;;;0.30;;
21733;SDS011;11029;47.820;10.534;2023-11-19T10:11:30;1.05;;;0.52;;
21733;SDS011;11029;47.820;10.534;2023-11-19T10:14:16;0.47;;;0.28;;
21733;SDS011;11029;47.820;10.534;2023-11-19T10:17:07;0.20;;;0.20;;
21733;SDS011;11029;47.820;10.534;2023-11-19T10:19:53;0.20;;;0.20;;
21733;SDS011;11029;47.820;10.534;2023-11-19T10:22:39;0.20;;;0.20;;
21733;SDS011;11029;47.820;10.534;2023-11-19T10:25:25;0.30;;;0.30;;
21733;SDS011;11029;47.820;10.534;2023-11-19T10:28:15;0.60;;;0.40;;
21733;SDS011;11029;47.820;10.534;2023-11-19T10:31:04;0.20;;;0.20;;
21733;SDS011;11029;47.820;10.534;2023-11-19T10:33:50;0.30;;;0.30;;
21733;SDS011;11029;47.820;10.534;2023-11-19T10:36:37;0.30;;;0.30;;
21733;SDS011;11029;47.820;10.534;2023-11-19T10:39:51;0.30;;;0.30;;
21733;SDS011;11029;47.820;10.534;2023-11-19T10:42:41;0.28;;;0.22;;
21733;SDS011;11029;47.820;10.534;2023-11-19T10:45:26;0.22;;;0.22;;
21733;SDS011;11029;47.820;10.534;2023-11-19T10:48:12;0.32;;;0.32;;
21733;SDS011;11029;47.820;10.534;2023-11-19T10:50:57;0.30;;;0.30;;
21733;SDS011;11029;47.820;10.534;2023-11-19T10:53:43;0.60;;;0.30;;
21733;SDS011;11029;47.820;10.534;2023-11-19T10:56:30;0.30;;;0.30;;
21733;SDS011;11029;47.820;10.534;2023-11-19T10:59:17;0.30;;;0.30;;
21733;SDS011;11029;47.820;10.534;2023-11-19T11:02:09;1.20;;;1.00;;
21733;SDS011;11029;47.820;10.534;2023-11-19T11:05:01;1.38;;;0.80;;
21733;SDS011;11029;47.820;10.534;2023-11-19T11:07:48;0.30;;;0.30;;
21733;SDS011;11029;47.820;10.534;2023-11-19T11:10:39;1.65;;;0.60;;
21733;SDS011;11029;47.820;10.534;2023-11-19T11:13:33;0.30;;;0.30;;
21733;SDS011;11029;47.820;10.534;2023-11-19T11:16:19;0.30;;;0.30;;
21733;SDS011;11029;47.820;10.534;2023-11-19T11:19:07;0.65;;;0.30;;
21733;SDS011;11029;47.820;10.534;2023-11-19T11:21:54;1.30;;;0.30;;
21733;SDS011;11029;47.820;10.534;2023-11-19T11:24:49;0.60;;;0.40;;
21733;SDS011;11029;47.820;10.534;2023-11-19T11:28:26;0.77;;;0.30;;
21733;SDS011;11029;47.820;10.534;2023-11-19T11:34:46;0.30;;;0.30;;
21733;SDS011;11029;47.820;10.534;2023-11-19T11:38:00;1.38;;;0.45;;
21733;SDS011;11029;47.820;10.534;2023-11-19T11:44:12;0.82;;;0.80;;
21733;SDS011;11029;47.820;10.534;2023-11-19T11:46:58;0.93;;;0.93;;
21733;SDS011;11029;47.820;10.534;2023-11-19T11:49:44;0.47;;;0.47;;
21733;SDS011;11029;47.820;10.534;2023-11-19T11:52:29;0.40;;;0.40;;
21733;SDS011;11029;47.820;10.534;2023-11-19T11:55:15;1.15;;;0.60;;
21733;SDS011;11029;47.820;10.534;2023-11-19T11:58:00;0.45;;;0.45;;
21733;SDS011;11029;47.820;10.534;2023-11-19T12:00:46;1.50;;;1.40;;
21733;SDS011;11029;47.820;10.534;2023-11-19T12:03:33;0.30;;;0.30;;
21733;SDS011;11029;47.820;10.534;2023-11-19T12:06:20;0.68;;;0.50;;
21733;SDS011;11029;47.820;10.534;2023-11-19T12:09:07;0.40;;;0.40;;
21733;SDS011;11029;47.820;10.534;2023-11-19T12:12:06;0.57;;;0.57;;
21733;SDS011;11029;47.820;10.534;2023-11-19T12:15:08;0.40;;;0.40;;
21733;SDS011;11029;47.820;10.534;2023-11-19T12:17:59;0.60;;;0.57;;
21733;SDS011;11029;47.820;10.534;2023-11-19T12:20:44;0.55;;;0.55;;
21733;SDS011;11029;47.820;10.534;2023-11-19T12:23:30;1.15;;;0.75;;
21733;SDS011;11029;47.820;10.534;2023-11-19T12:26:36;0.60;;;0.60;;
21733;SDS011;11029;47.820;10.534;2023-11-19T12:29:23;0.50;;;0.50;;
21733;SDS011;11029;47.820;10.534;2023-11-19T12:32:09;2.17;;;0.65;;
21733;SDS011;11029;47.820;10.534;2023-11-19T12:34:57;0.68;;;0.50;;
21733;SDS011;11029;47.820;10.534;2023-11-19T12:37:43;0.65;;;0.60;;
21733;SDS011;11029;47.820;10.534;2023-11-19T12:40:31;0.57;;;0.57;;
21733;SDS011;11029;47.820;10.534;2023-11-19T12:43:23;0.47;;;0.47;;
21733;SDS011;11029;47.820;10.534;2023-11-19T12:49:05;0.50;;;0.50;;
21733;SDS011;11029;47.820;10.534;2023-11-19T12:51:51;0.65;;;0.57;;
21733;SDS011;11029;47.820;10.534;2023-11-19T12:54:36;1.67;;;0.60;;
21733;SDS011;11029;47.820;10.534;2023-11-19T12:57:35;0.80;;;0.60;;
21733;SDS011;11029;47.820;10.534;2023-11-19T13:00:25;0.50;;;0.50;;
21733;SDS011;11029;47.820;10.534;2023-11-19T13:03:12;0.85;;;0.50;;
21733;SDS011;11029;47.820;10.534;2023-11-19T13:06:01;0.63;;;0.30;;
21733;SDS011;11029;47.820;10.534;2023-11-19T13:08:53;1.52;;;0.50;;
21733;SDS011;11029;47.820;10.534;2023-11-19T13:11:40;0.60;;;0.50;;
21733;SDS011;11029;47.820;10.534;2023-11-19T13:14:35;0.40;;;0.40;;
21733;SDS011;11029;47.820;10.534;2023-11-19T13:18:49;0.50;;;0.50;;
21733;SDS011;11029;47.820;10.534;2023-11-19T13:21:36;1.15;;;0.40;;
21733;SDS011;11029;47.820;10.534;2023-11-19T13:24:23;0.40;;;0.40;;
21733;SDS011;11029;47.820;10.534;2023-11-19T13:27:08;0.52;;;0.38;;
21733;SDS011;11029;47.820;10.534;2023-11-19T13:29:54;0.50;;;0.50;;
21733;SDS011;11029;47.820;10.534;2023-11-19T13:32:40;0.35;;;0.35;;
21733;SDS011;11029;47.820;10.534;2023-11-19T13:35:25;0.30;;;0.30;;
21733;SDS011;11029;47.820;10.534;2023-11-19T13:38:12;0.63;;;0.30;;
21733;SDS011;11029;47.820;10.534;2023-11-19T13:40:58;0.30;;;0.30;;
21733;SDS011;11029;47.820;10.534;2023-11-19T13:43:44;0.50;;;0.50;;
21733;SDS011;11029;47.820;10.534;2023-11-19T13:46:30;0.60;;;0.60;;
21733;SDS011;11029;47.820;10.534;2023-11-19T13:49:16;0.88;;;0.57;;
21733;SDS011;11029;47.820;10.534;2023-11-19T13:52:01;1.75;;;0.50;;
21733;SDS011;11029;47.820;10.534;2023-11-19T13:54:46;14.50;;;6.90;;
21733;SDS011;11029;47.820;10.534;2023-11-19T13:57:32;15.38;;;6.25;;
21733;SDS011;11029;47.820;10.534;2023-11-19T14:00:17;7.68;;;2.65;;
21733;SDS011;11029;47.820;10.534;2023-11-19T14:03:08;5.47;;;2.75;;
21733;SDS011;11029;47.820;10.534;2023-11-19T14:05:57;5.68;;;2.88;;
21733;SDS011;11029;47.820;10.534;2023-11-19T14:08:43;1.27;;;0.60;;
21733;SDS011;11029;47.820;10.534;2023-11-19T14:11:29;0.63;;;0.60;;
21733;SDS011;11029;47.820;10.534;2023-11-19T14:14:15;1.05;;;0.70;;
21733;SDS011;11029;47.820;10.534;2023-11-19T14:17:03;0.88;;;0.60;;
21733;SDS011;11029;47.820;10.534;2023-11-19T14:19:52;0.70;;;0.70;;
21733;SDS011;11029;47.820;10.534;2023-11-19T14:22:37;1.52;;;0.45;;
21733;SDS011;11029;47.820;10.534;2023-11-19T14:25:27;1.00;;;0.50;;
21733;SDS011;11029;47.820;10.534;2023-11-19T14:28:12;0.52;;;0.50;;
21733;SDS011;11029;47.820;10.534;2023-11-19T14:30:58;0.40;;;0.40;;
21733;SDS011;11029;47.820;10.534;2023-11-19T14:33:44;0.50;;;0.50;;
21733;SDS011;11029;47.820;10.534;2023-11-19T14:36:30;0.40;;;0.40;;
21733;SDS011;11029;47.820;10.534;2023-11-19T14:39:15;0.40;;;0.40;;
21733;SDS011;11029;47.820;10.534;2023-11-19T14:42:01;0.38;;;0.38;;
21733;SDS011;11029;47.820;10.534;2023-11-19T14:44:49;0.55;;;0.47;;
21733;SDS011;11029;47.820;10.534;2023-11-19T14:47:37;0.50;;;0.50;;
21733;SDS011;11029;47.820;10.534;2023-11-19T14:50:23;0.45;;;0.38;;
21733;SDS011;11029;47.820;10.534;2023-11-19T14:53:08;0.30;;;0.30;;
21733;SDS011;11029;47.820;10.534;2023-11-19T14:55:54;1.48;;;0.30;;
21733;SDS011;11029;47.820;10.534;2023-11-19T14:58:40;0.45;;;0.40;;
21733;SDS011;11029;47.820;10.534;2023-11-19T15:01:25;0.63;;;0.50;;
21733;SDS011;11029;47.820;10.534;2023-11-19T15:04:13;0.40;;;0.40;;
21733;SDS011;11029;47.820;10.534;2023-11-19T15:06:59;0.77;;;0.50;;
21733;SDS011;11029;47.820;10.534;2023-11-19T15:09:45;1.08;;;0.50;;
21733;SDS011;11029;47.820;10.534;2023-11-19T15:12:30;0.40;;;0.40;;
21733;SDS011;11029;47.820;10.534;2023-11-19T15:15:16;0.88;;;0.88;;
21733;SDS011;11029;47.820;10.534;2023-11-19T15:18:20;0.30;;;0.30;;
21733;SDS011;11029;47.820;10.534;2023-11-19T15:21:06;0.40;;;0.40;;
21733;SDS011;11029;47.820;10.534;2023-11-19T15:23:53;0.57;;;0.40;;
21733;SDS011;11029;47.820;10.534;2023-11-19T15:26:38;0.57;;;0.40;;
21733;SDS011;11029;47.820;10.534;2023-11-19T15:29:24;0.40;;;0.40;;
21733;SDS011;11029;47.820;10.534;2023-11-19T15:32:09;0.40;;;0.40;;
21733;SDS011;11029;47.820;10.534;2023-11-19T15:34:55;0.40;;;0.40;;
21733;SDS011;11029;47.820;10.534;2023-11-19T15:37:40;0.70;;;0.45;;
21733;SDS011;11029;47.820;10.534;2023-11-19T15:40:28;0.45;;;0.40;;
21733;SDS011;11029;47.820;10.534;2023-11-19T15:43:14;1.17;;;0.90;;
21733;SDS011;11029;47.820;10.534;2023-11-19T15:46:00;0.68;;;0.43;;
21733;SDS011;11029;47.820;10.534;2023-11-19T15:48:45;0.50;;;0.50;;
21733;SDS011;11029;47.820;10.534;2023-11-19T15:51:31;0.30;;;0.30;;
21733;SDS011;11029;47.820;10.534;2023-11-19T15:54:17;0.50;;;0.50;;
21733;SDS011;11029;47.820;10.534;2023-11-19T15:57:02;1.00;;;0.50;;
21733;SDS011;11029;47.820;10.534;2023-11-19T15:59:48;1.08;;;0.98;;
21733;SDS011;11029;47.820;10.534;2023-11-19T16:02:34;0.40;;;0.40;;
21733;SDS011;11029;47.820;10.534;2023-11-19T16:05:20;1.58;;;0.57;;
21733;SDS011;11029;47.820;10.534;2023-11-19T16:08:05;0.63;;;0.50;;
21733;SDS011;11029;47.820;10.534;2023-11-19T16:10:52;1.10;;;0.90;;
21733;SDS011;11029;47.820;10.534;2023-11-19T16:13:38;0.93;;;0.70;;
21733;SDS011;11029;47.820;10.534;2023-11-19T16:16:24;0.50;;;0.50;;
21733;SDS011;11029;47.820;10.534;2023-11-19T16:19:09;0.88;;;0.50;;
21733;SDS011;11029;47.820;10.534;2023-11-19T16:21:55;0.60;;;0.40;;
21733;SDS011;11029;47.820;10.534;2023-11-19T16:24:40;0.80;;;0.40;;
21733;SDS011;11029;47.820;10.534;2023-11-19T16:27:26;1.58;;;0.40;;
21733;SDS011;11029;47.820;10.534;2023-11-19T16:30:13;0.50;;;0.30;;
21733;SDS011;11029;47.820;10.534;2023-11-19T16:32:59;0.40;;;0.40;;
21733;SDS011;11029;47.820;10.534;2023-11-19T16:35:45;0.45;;;0.40;;
21733;SDS011;11029;47.820;10.534;2023-11-19T16:38:30;0.45;;;0.45;;
21733;SDS011;11029;47.820;10.534;2023-11-19T16:41:19;0.40;;;0.40;;
21733;SDS011;11029;47.820;10.534;2023-11-19T16:44:23;0.75;;;0.70;;